createdAt,value
2022-09-06T00:30:28.626Z,0
2022-09-06T00:31:09.017Z,0
2022-09-06T00:31:49.571Z,0
2022-09-06T00:37:13.532Z,0
2022-09-06T00:37:54.022Z,0
2022-09-06T00:38:34.536Z,0
2022-09-06T00:39:15.019Z,0
2022-09-06T00:39:55.603Z,0
2022-09-06T00:40:36.039Z,0
2022-09-06T00:41:16.551Z,0
2022-09-06T00:41:57.075Z,0
2022-09-06T00:42:37.567Z,0
2022-09-06T00:43:18.026Z,0
2022-09-06T00:49:23.354Z,0
2022-09-06T00:50:03.833Z,0
2022-09-06T00:50:44.311Z,0
2022-09-06T00:51:24.819Z,0
2022-09-06T00:52:05.345Z,0
2022-09-06T00:52:45.824Z,0
2022-09-06T00:53:26.313Z,0
2022-09-06T00:54:47.373Z,0
2022-09-06T00:57:25.541Z,0
2022-09-06T00:58:06.037Z,0
2022-09-06T00:58:46.450Z,0
2022-09-06T01:04:10.434Z,0
2022-09-06T01:04:50.882Z,0
2022-09-06T01:05:31.400Z,0
2022-09-06T01:06:11.922Z,0
2022-09-06T01:06:52.336Z,0
2022-09-06T01:07:32.800Z,0
2022-09-06T01:08:13.358Z,0
2022-09-06T01:08:53.828Z,0
2022-09-06T01:09:34.321Z,0
2022-09-06T01:10:14.821Z,0
2022-09-06T01:18:20.673Z,0
2022-09-06T01:19:01.116Z,0
2022-09-06T01:19:41.584Z,0
2022-09-06T01:20:22.141Z,0
2022-09-06T01:21:02.627Z,0
2022-09-06T01:21:43.116Z,0
2022-09-06T01:22:23.586Z,0
2022-09-06T01:23:04.131Z,0
2022-09-06T01:23:44.619Z,0
2022-09-06T01:24:25.077Z,0
2022-09-06T01:31:50.529Z,0
2022-09-06T01:32:31.040Z,0
2022-09-06T01:33:11.495Z,0
2022-09-06T01:33:51.947Z,0
2022-09-06T01:34:32.449Z,0
2022-09-06T01:35:12.957Z,0
2022-09-06T01:35:53.485Z,0
2022-09-06T01:36:33.942Z,0
2022-09-06T01:37:14.407Z,0
2022-09-06T01:37:54.896Z,0
2022-09-06T01:46:55.184Z,0
2022-09-06T01:47:35.435Z,0
2022-09-06T01:48:15.898Z,0
2022-09-06T01:50:57.783Z,0
2022-09-06T01:51:38.240Z,0
2022-09-06T01:52:18.692Z,0
2022-09-06T01:52:59.165Z,0
2022-09-06T01:53:39.632Z,0
2022-09-06T01:54:20.102Z,0
2022-09-06T01:55:00.580Z,0
2022-09-06T01:55:41.096Z,0
2022-09-06T01:56:21.620Z,0
2022-09-06T01:57:02.020Z,0
2022-09-06T01:57:42.509Z,0
2022-09-06T02:05:07.735Z,0
2022-09-06T02:05:48.261Z,0
2022-09-06T02:06:28.716Z,0
2022-09-06T02:07:09.212Z,0
2022-09-06T02:07:49.625Z,0
2022-09-06T02:08:30.111Z,0
2022-09-06T02:09:10.598Z,0
2022-09-06T02:09:51.109Z,0
2022-09-06T02:10:31.536Z,0
2022-09-06T02:11:12.064Z,0
2022-09-06T02:11:52.485Z,0
2022-09-06T02:19:17.895Z,0
2022-09-06T02:19:58.341Z,0
2022-09-06T02:20:38.841Z,0
2022-09-06T02:21:19.329Z,0
2022-09-06T02:21:59.875Z,0
2022-09-06T02:22:40.291Z,0
2022-09-06T02:23:20.801Z,0
2022-09-06T02:24:01.307Z,0
2022-09-06T02:24:41.736Z,0
2022-09-06T02:25:22.265Z,0
2022-09-06T02:33:28.083Z,0
2022-09-06T02:34:08.554Z,0
2022-09-06T02:34:49.029Z,0
2022-09-06T02:35:29.498Z,0
2022-09-06T02:36:10.049Z,0
2022-09-06T02:36:50.519Z,0
2022-09-06T02:37:31.003Z,0
2022-09-06T02:38:11.460Z,0
2022-09-06T02:38:51.992Z,0
2022-09-06T02:39:32.542Z,0
2022-09-06T02:46:57.671Z,0
2022-09-06T02:47:38.117Z,0
2022-09-06T02:48:18.599Z,0
2022-09-06T02:48:59.083Z,0
2022-09-06T02:49:39.598Z,0
2022-09-06T02:50:20.045Z,0
2022-09-06T02:51:00.511Z,0
2022-09-06T02:51:40.978Z,0
2022-09-06T02:52:21.464Z,0
2022-09-06T02:53:01.918Z,0
2022-09-06T03:01:07.848Z,0
2022-09-06T03:01:48.277Z,0
2022-09-06T03:02:28.823Z,0
2022-09-06T03:03:09.241Z,0
2022-09-06T03:03:49.729Z,0
2022-09-06T03:04:30.156Z,0
2022-09-06T03:05:10.628Z,0
2022-09-06T03:05:51.147Z,0
2022-09-06T03:06:31.558Z,0
2022-09-06T03:07:12.089Z,0
2022-09-06T03:07:52.514Z,0
2022-09-06T03:15:17.783Z,0
2022-09-06T03:15:58.282Z,0
2022-09-06T03:16:38.863Z,0
2022-09-06T03:17:19.325Z,0
2022-09-06T03:17:59.788Z,0
2022-09-06T03:18:40.314Z,0
2022-09-06T03:19:20.726Z,0
2022-09-06T03:20:01.199Z,0
2022-09-06T03:20:41.677Z,0
2022-09-06T03:21:22.176Z,0
2022-09-06T03:22:02.623Z,0
2022-09-06T03:29:27.932Z,0
2022-09-06T03:30:08.452Z,0
2022-09-06T03:30:48.962Z,0
2022-09-06T03:31:29.405Z,0
2022-09-06T03:32:09.865Z,0
2022-09-06T03:32:50.407Z,0
2022-09-06T03:33:30.965Z,0
2022-09-06T03:34:11.457Z,0
2022-09-06T03:34:51.909Z,0
2022-09-06T03:35:32.381Z,0
2022-09-06T03:42:57.773Z,0
2022-09-06T03:43:38.257Z,0
2022-09-06T03:44:18.757Z,0
2022-09-06T03:44:59.264Z,0
2022-09-06T03:45:39.794Z,0
2022-09-06T03:46:20.320Z,0
2022-09-06T03:47:00.721Z,0
2022-09-06T03:47:41.530Z,0
2022-09-06T03:48:21.953Z,0
2022-09-06T03:56:27.734Z,0
2022-09-06T03:57:08.204Z,0
2022-09-06T03:57:48.658Z,0
2022-09-06T03:58:29.150Z,0
2022-09-06T03:59:09.613Z,0
2022-09-06T03:59:50.092Z,0
2022-09-06T04:00:30.556Z,0
2022-09-06T04:01:11.071Z,0
2022-09-06T04:01:52.252Z,0
2022-09-06T04:02:32.760Z,0
2022-09-06T04:09:57.984Z,0
2022-09-06T04:10:38.439Z,0
2022-09-06T04:11:18.922Z,0
2022-09-06T04:11:59.364Z,0
2022-09-06T04:12:39.872Z,0
2022-09-06T04:13:20.324Z,0
2022-09-06T04:14:00.824Z,0
2022-09-06T04:14:41.266Z,0
2022-09-06T04:15:21.750Z,0
2022-09-06T04:16:02.340Z,0
2022-09-06T04:22:47.946Z,0
2022-09-06T04:23:28.479Z,0
2022-09-06T04:24:08.961Z,0
2022-09-06T04:24:49.521Z,0
2022-09-06T04:25:30.004Z,0
2022-09-06T04:26:10.466Z,0
2022-09-06T04:26:50.959Z,0
2022-09-06T04:27:31.470Z,0
2022-09-06T04:28:11.993Z,0
2022-09-06T04:28:52.468Z,0
2022-09-06T04:36:17.816Z,0
2022-09-06T04:36:58.404Z,0
2022-09-06T04:37:38.824Z,0
2022-09-06T04:38:19.303Z,0
2022-09-06T04:38:59.785Z,0
2022-09-06T04:39:40.347Z,0
2022-09-06T04:42:18.584Z,0
2022-09-06T04:42:59.060Z,0
2022-09-06T04:43:39.625Z,0
2022-09-06T04:47:14.726Z,0
2022-09-06T04:47:55.246Z,0
2022-09-06T04:48:35.647Z,0
2022-09-06T04:53:59.439Z,0
2022-09-06T04:54:39.957Z,0
2022-09-06T04:55:20.522Z,0
2022-09-06T04:56:00.955Z,0
2022-09-06T04:56:41.414Z,0
2022-09-06T04:57:21.900Z,0
2022-09-06T04:58:02.411Z,0
2022-09-06T04:58:42.907Z,0
2022-09-06T04:59:23.398Z,0
2022-09-06T05:00:03.868Z,0
2022-09-06T05:07:29.385Z,5
2022-09-06T05:08:09.979Z,5
2022-09-06T05:08:50.565Z,5
2022-09-06T05:09:31.031Z,5
2022-09-06T05:10:11.540Z,5
2022-09-06T05:10:52.153Z,5
2022-09-06T05:11:32.633Z,10
2022-09-06T05:12:13.125Z,15
2022-09-06T05:12:53.612Z,15
2022-09-06T05:19:39.111Z,30
2022-09-06T05:20:19.604Z,35
2022-09-06T05:21:00.148Z,35
2022-09-06T05:21:40.556Z,45
2022-09-06T05:22:21.356Z,60
2022-09-06T05:23:01.871Z,80
2022-09-06T05:26:36.595Z,135
2022-09-06T05:27:16.867Z,140
2022-09-06T05:27:57.430Z,145
2022-09-06T05:33:53.646Z,195
2022-09-06T05:34:34.159Z,200
2022-09-06T05:35:14.737Z,210
2022-09-06T05:38:38.494Z,250
2022-09-06T05:39:18.879Z,250
2022-09-06T05:39:59.364Z,255
2022-09-06T05:40:39.946Z,260
2022-09-06T05:41:20.602Z,260
2022-09-06T05:42:01.065Z,260
2022-09-06T05:42:41.570Z,265
2022-09-06T05:43:22.028Z,275
2022-09-06T05:44:02.577Z,280
2022-09-06T05:50:48.498Z,345
2022-09-06T05:51:29.052Z,350
2022-09-06T05:52:09.989Z,350
2022-09-06T05:52:50.287Z,355
2022-09-06T06:32:37.123Z,0
2022-09-06T06:33:17.363Z,0
2022-09-06T06:33:59.190Z,0
2022-09-06T06:36:01.512Z,0
2022-09-06T06:36:42.223Z,0
2022-09-06T06:37:23.022Z,0
2022-09-06T06:38:04.176Z,0
2022-09-06T06:38:45.100Z,0
2022-09-06T06:39:25.909Z,0
2022-09-06T06:44:51.737Z,0
2022-09-06T06:45:32.375Z,0
2022-09-06T06:46:13.044Z,0
2022-09-06T06:46:53.669Z,0
2022-09-06T06:47:34.070Z,0
2022-09-06T06:48:15.409Z,0
2022-09-06T06:48:56.207Z,0
2022-09-06T06:53:41.369Z,0
2022-09-06T06:54:22.080Z,0
2022-09-06T06:55:03.672Z,0
2022-09-06T06:55:43.849Z,0
2022-09-06T06:56:24.510Z,0
2022-09-06T06:57:05.125Z,0
2022-09-06T06:57:46.014Z,0
2022-09-06T07:01:12.901Z,0
2022-09-06T07:01:53.917Z,0
2022-09-06T07:02:34.557Z,0
2022-09-06T07:03:15.827Z,0
2022-09-06T07:06:16.663Z,0
2022-09-06T07:08:03.090Z,0
2022-09-06T07:08:43.567Z,0
2022-09-06T07:09:24.415Z,0
2022-09-06T07:10:45.362Z,0
2022-09-06T07:11:26.207Z,0
2022-09-06T07:16:51.240Z,0
2022-09-06T07:17:31.977Z,0
2022-09-06T07:18:12.589Z,0
2022-09-06T07:18:53.116Z,0
2022-09-06T07:20:14.622Z,0
2022-09-06T07:22:16.011Z,0
2022-09-06T07:27:48.864Z,0
2022-09-06T07:28:21.916Z,0
2022-09-06T07:29:42.859Z,0
2022-09-06T07:30:23.445Z,0
2022-09-06T07:31:04.171Z,0
2022-09-06T07:38:31.349Z,0
2022-09-06T07:39:12.010Z,0
2022-09-06T07:39:52.494Z,0
2022-09-06T07:40:33.121Z,0
2022-09-06T07:41:13.608Z,0
2022-09-06T07:41:54.195Z,0
2022-09-06T07:44:22.694Z,0
2022-09-06T07:45:03.201Z,0
2022-09-06T07:45:43.724Z,0
2022-09-06T07:48:33.910Z,0
2022-09-06T07:54:28.604Z,0
2022-09-06T07:54:47.398Z,0
2022-09-06T07:55:27.897Z,0
2022-09-06T07:58:50.730Z,0
2022-09-06T07:59:31.215Z,0
2022-09-06T08:00:11.689Z,0
2022-09-06T08:00:52.218Z,0
2022-09-06T08:01:32.670Z,0
2022-09-06T08:02:13.236Z,0
2022-09-06T08:02:53.678Z,0
2022-09-06T08:04:15.037Z,0
2022-09-06T08:11:40.593Z,0
2022-09-06T08:12:21.060Z,0
2022-09-06T08:13:01.577Z,0
2022-09-06T08:13:42.058Z,0
2022-09-06T08:14:22.546Z,0
2022-09-06T08:15:03.086Z,0
2022-09-06T08:15:43.580Z,0
2022-09-06T08:16:24.135Z,0
2022-09-06T08:17:04.612Z,0
2022-09-06T08:17:45.234Z,0
2022-09-06T08:25:10.952Z,0
2022-09-06T08:25:51.485Z,0
2022-09-06T08:26:32.797Z,0
2022-09-06T08:27:13.327Z,0
2022-09-06T08:27:53.843Z,0
2022-09-06T08:28:34.405Z,0
2022-09-06T08:29:14.856Z,0
2022-09-06T08:29:55.404Z,0
2022-09-06T08:35:20.564Z,0
2022-09-06T08:36:01.180Z,0
2022-09-06T08:36:41.640Z,0
2022-09-06T08:37:25.037Z,0
2022-09-06T08:38:02.713Z,0
2022-09-06T08:38:43.234Z,0
2022-09-06T08:39:23.743Z,0
2022-09-06T08:40:04.485Z,0
2022-09-06T08:40:44.947Z,0
2022-09-06T08:41:25.418Z,0
2022-09-06T08:47:30.701Z,0
2022-09-06T08:48:11.186Z,0
2022-09-06T08:48:51.728Z,0
2022-09-06T08:49:32.214Z,0
2022-09-06T08:50:12.747Z,0
2022-09-06T08:50:53.335Z,0
2022-09-06T08:51:37.932Z,0
2022-09-06T08:54:12.680Z,0
2022-09-06T08:54:53.419Z,0
2022-09-06T08:55:33.961Z,0
2022-09-06T08:56:14.498Z,0
2022-09-06T09:00:17.785Z,0
2022-09-06T09:00:59.677Z,0
2022-09-06T09:01:40.553Z,0
2022-09-06T09:02:21.103Z,0
2022-09-06T09:03:01.574Z,0
2022-09-06T09:03:42.142Z,0
2022-09-06T09:09:47.795Z,0
2022-09-06T09:10:28.386Z,0
2022-09-06T09:11:08.974Z,0
2022-09-06T09:11:49.528Z,0
2022-09-06T09:12:30.160Z,0
2022-09-06T09:13:10.719Z,0
2022-09-06T09:13:51.310Z,0
2022-09-06T09:14:31.767Z,0
2022-09-06T09:15:12.385Z,0
2022-09-06T09:21:17.357Z,0
2022-09-06T09:21:57.898Z,0
2022-09-06T09:22:38.531Z,0
2022-09-06T09:23:20.313Z,0
2022-09-06T09:24:00.877Z,0
2022-09-06T09:25:22.169Z,0
2022-09-06T09:31:27.485Z,0
2022-09-06T09:32:07.990Z,0
2022-09-06T09:32:48.573Z,0
2022-09-06T09:33:29.416Z,0
2022-09-06T09:34:10.468Z,0
2022-09-06T09:34:51.033Z,0
2022-09-06T09:37:46.179Z,0
2022-09-06T09:38:12.158Z,0
2022-09-06T09:42:14.644Z,0
2022-09-06T09:42:55.122Z,0
2022-09-06T09:43:35.905Z,0
2022-09-06T09:44:16.403Z,0
2022-09-06T09:44:57.884Z,0
2022-09-06T09:45:38.429Z,0
2022-09-06T09:46:18.975Z,0
2022-09-06T09:46:59.464Z,0
2022-09-06T09:53:44.799Z,0
2022-09-06T09:54:25.391Z,0
2022-09-06T09:55:06.206Z,0
2022-09-06T09:57:44.701Z,0
2022-09-06T09:58:24.999Z,0
2022-09-06T09:59:05.484Z,0
2022-09-06T10:04:45.459Z,0
2022-09-06T10:05:10.264Z,0
2022-09-06T10:05:51.268Z,0
2022-09-06T10:07:11.926Z,0
2022-09-06T10:07:52.415Z,0
2022-09-06T10:08:32.954Z,0
2022-09-06T10:09:17.240Z,0
2022-09-06T10:09:53.986Z,0
2022-09-06T10:16:39.075Z,0
2022-09-06T10:17:19.640Z,0
2022-09-06T10:18:00.164Z,0
2022-09-06T10:18:40.655Z,0
2022-09-06T10:19:21.133Z,0
2022-09-06T10:20:01.708Z,0
2022-09-06T10:20:42.241Z,0
2022-09-06T10:21:22.836Z,0
2022-09-06T10:22:03.307Z,0
2022-09-06T10:22:43.785Z,0
2022-09-06T10:28:49.580Z,0
2022-09-06T10:29:30.141Z,0
2022-09-06T10:30:10.658Z,0
2022-09-06T10:30:51.268Z,0
2022-09-06T10:31:31.854Z,0
2022-09-06T10:32:12.303Z,0
2022-09-06T10:32:52.951Z,0
2022-09-06T10:33:33.479Z,0
2022-09-06T10:38:19.765Z,0
2022-09-06T10:39:03.630Z,0
2022-09-06T10:39:41.601Z,0
2022-09-06T10:40:22.237Z,0
2022-09-06T10:41:49.482Z,0
2022-09-06T10:42:30.228Z,0
2022-09-06T10:43:10.826Z,0
2022-09-06T10:43:51.397Z,0
2022-09-06T10:44:31.935Z,0
2022-09-06T10:45:12.404Z,0
2022-09-06T10:45:52.903Z,0
2022-09-06T10:46:33.489Z,0
2022-09-06T10:47:13.928Z,0
2022-09-06T10:53:19.347Z,0
2022-09-06T10:54:01.261Z,0
2022-09-06T10:54:44.041Z,0
2022-09-06T10:56:48.941Z,0
2022-09-06T11:00:29.138Z,0
2022-09-06T11:03:58.594Z,0
2022-09-06T11:06:00.603Z,0
2022-09-06T11:06:41.114Z,0
2022-09-06T11:07:21.637Z,0
2022-09-06T11:12:23.383Z,0
2022-09-06T11:13:03.379Z,0
2022-09-06T11:13:43.962Z,0
2022-09-06T11:17:47.513Z,0
2022-09-06T11:18:28.098Z,0
2022-09-06T11:19:08.565Z,0
2022-09-06T11:19:49.125Z,0
2022-09-06T11:29:24.391Z,0
2022-09-06T11:30:06.748Z,0
2022-09-06T11:30:48.063Z,0
2022-09-06T11:32:50.814Z,0
2022-09-06T11:33:31.171Z,0
2022-09-06T11:34:13.282Z,0
2022-09-06T11:34:54.204Z,0
2022-09-06T11:37:41.788Z,0
2022-09-06T11:38:22.217Z,0
2022-09-06T11:39:02.772Z,0
2022-09-06T11:41:07.169Z,0
2022-09-06T11:46:30.415Z,0
2022-09-06T11:50:10.850Z,0
2022-09-06T11:50:52.107Z,0
2022-09-06T11:51:32.625Z,0
2022-09-06T11:52:13.220Z,0
2022-09-06T12:32:37.262Z,45
2022-09-06T12:33:16.773Z,45
2022-09-06T12:33:58.645Z,45
2022-09-06T12:37:20.838Z,40
2022-09-06T12:38:01.383Z,40
2022-09-06T12:38:41.896Z,40
2022-09-06T12:39:22.425Z,40
2022-09-06T12:40:03.766Z,40
2022-09-06T12:40:44.440Z,40
2022-09-06T12:41:24.899Z,40
2022-09-06T12:42:05.479Z,40
2022-09-06T12:46:11.427Z,40
2022-09-06T12:46:51.868Z,40
2022-09-06T12:47:32.408Z,40
2022-09-06T12:48:13.022Z,45
2022-09-06T12:48:53.425Z,40
2022-09-06T12:52:32.866Z,40
2022-09-06T12:53:15.803Z,40
2022-09-06T12:53:53.720Z,40
2022-09-06T12:58:37.603Z,45
2022-09-06T12:59:18.131Z,45
2022-09-06T12:59:58.703Z,45
2022-09-06T13:00:39.345Z,45
2022-09-06T13:01:19.947Z,45
2022-09-06T13:02:00.438Z,45
2022-09-06T13:02:41.033Z,45
2022-09-06T13:03:21.383Z,45
2022-09-06T13:04:01.990Z,45
2022-09-06T13:07:20.489Z,45
2022-09-06T13:08:08.950Z,45
2022-09-06T13:08:57.876Z,45
2022-09-06T13:09:45.502Z,45
2022-09-06T13:10:34.312Z,45
2022-09-06T13:11:15.325Z,45
2022-09-06T13:11:55.934Z,45
2022-09-06T13:14:40.303Z,45
2022-09-06T13:15:20.312Z,45
2022-09-06T13:16:02.699Z,45
2022-09-06T13:16:42.301Z,45
2022-09-06T13:17:22.788Z,45
2022-09-06T13:22:08.394Z,40
2022-09-06T13:22:49.003Z,40
2022-09-06T13:23:29.618Z,40
2022-09-06T13:24:10.137Z,40
2022-09-06T13:24:50.670Z,40
2022-09-06T13:25:31.272Z,40
2022-09-06T13:26:11.794Z,40
2022-09-06T13:26:52.360Z,40
2022-09-06T13:27:32.956Z,40
2022-09-06T13:31:38.280Z,40
2022-09-06T13:32:18.414Z,40
2022-09-06T13:32:58.933Z,40
2022-09-06T13:33:39.568Z,40
2022-09-06T13:34:20.159Z,40
2022-09-06T13:35:42.529Z,40
2022-09-06T13:39:12.474Z,40
2022-09-06T13:41:19.179Z,40
2022-09-06T13:41:59.639Z,40
2022-09-06T13:42:40.171Z,40
2022-09-06T13:43:20.617Z,45
2022-09-06T13:44:01.148Z,45
2022-09-06T13:44:41.641Z,45
2022-09-06T13:49:22.175Z,45
2022-09-06T13:50:12.698Z,45
2022-09-06T13:51:01.978Z,45
2022-09-06T13:51:48.544Z,45
2022-09-06T13:52:37.168Z,45
2022-09-06T13:55:16.002Z,45
2022-09-06T13:55:57.151Z,45
2022-09-06T13:56:38.091Z,45
2022-09-06T13:58:00.236Z,45
2022-09-06T13:58:41.472Z,45
2022-09-06T13:59:22.703Z,45
2022-09-06T14:00:03.844Z,45
2022-09-06T14:00:44.988Z,45
2022-09-06T14:03:30.942Z,45
2022-09-06T14:04:12.875Z,40
2022-09-06T14:04:53.944Z,45
2022-09-06T14:08:20.381Z,45
2022-09-06T14:09:09.615Z,45
2022-09-06T14:09:42.656Z,45
2022-09-06T14:10:23.665Z,45
2022-09-06T14:11:05.647Z,45
2022-09-06T14:14:42.525Z,45
2022-09-06T14:15:24.363Z,40
2022-09-06T14:16:12.255Z,40
2022-09-06T14:16:51.627Z,40
2022-09-06T14:17:32.857Z,40
2022-09-06T14:18:15.237Z,40
2022-09-06T14:18:59.672Z,40
2022-09-06T14:19:42.994Z,40
2022-09-06T14:21:16.748Z,40
2022-09-06T14:21:58.497Z,40
2022-09-06T14:23:20.726Z,40
2022-09-06T14:24:04.244Z,40
2022-09-06T14:26:27.788Z,40
2022-09-06T14:29:31.893Z,40
2022-09-06T14:30:12.504Z,40
2022-09-06T14:30:53.037Z,40
2022-09-06T14:34:03.929Z,40
2022-09-06T14:40:31.655Z,40
2022-09-06T14:41:20.270Z,40
2022-09-06T14:43:41.612Z,40
2022-09-06T14:44:24.313Z,40
2022-09-06T14:45:05.448Z,40
2022-09-06T14:45:46.932Z,40
2022-09-06T14:46:28.036Z,40
2022-09-06T14:47:09.789Z,35
2022-09-06T14:50:03.578Z,30
2022-09-06T14:53:40.056Z,35
2022-09-06T14:54:20.800Z,35
2022-09-06T14:55:09.463Z,35
2022-09-06T14:55:52.650Z,35
2022-09-06T14:56:33.338Z,35
2022-09-06T14:57:13.950Z,35
2022-09-06T14:57:54.495Z,35
2022-09-06T14:58:35.076Z,35
2022-09-06T14:59:15.633Z,35
2022-09-06T15:04:01.438Z,35
2022-09-06T15:04:42.533Z,35
2022-09-06T15:05:23.013Z,30
2022-09-06T15:06:03.697Z,30
2022-09-06T15:06:44.816Z,30
2022-09-06T15:07:25.633Z,30
2022-09-06T15:11:32.975Z,30
2022-09-06T15:12:14.446Z,30
2022-09-06T15:12:55.584Z,30
2022-09-06T15:13:37.063Z,30
2022-09-06T15:14:18.326Z,30
2022-09-06T15:14:59.454Z,30
2022-09-06T15:17:45.288Z,30
2022-09-06T15:18:27.235Z,30
2022-09-06T15:19:08.162Z,30
2022-09-06T15:19:49.467Z,30
2022-09-06T15:23:34.885Z,30
2022-09-06T15:23:56.212Z,30
2022-09-06T15:24:37.245Z,30
2022-09-06T15:25:18.251Z,30
2022-09-06T15:28:45.280Z,30
2022-09-06T15:29:26.631Z,30
2022-09-06T15:30:07.671Z,30
2022-09-06T15:30:48.831Z,30
2022-09-06T15:34:14.976Z,25
2022-09-06T15:34:55.998Z,25
2022-09-06T15:35:37.044Z,25
2022-09-06T15:36:18.163Z,25
2022-09-06T15:36:59.353Z,25
2022-09-06T15:40:25.177Z,25
2022-09-06T15:41:08.059Z,25
2022-09-06T15:41:47.198Z,25
2022-09-06T15:42:29.322Z,25
2022-09-06T15:43:09.613Z,25
2022-09-06T15:46:35.432Z,25
2022-09-06T15:47:16.139Z,25
2022-09-06T15:47:57.469Z,25
2022-09-06T15:48:39.128Z,25
2022-09-06T15:52:04.799Z,25
2022-09-06T15:52:45.855Z,25
2022-09-06T15:53:26.952Z,25
2022-09-06T15:54:07.998Z,25
2022-09-06T15:54:49.049Z,25
2022-09-06T15:58:55.820Z,25
2022-09-06T15:59:36.781Z,25
2022-09-06T16:00:58.946Z,25
2022-09-06T16:05:05.377Z,20
2022-09-06T16:06:27.630Z,20
2022-09-06T16:07:08.349Z,20
2022-09-06T16:11:15.885Z,15
2022-09-06T16:11:56.892Z,15
2022-09-06T16:12:38.159Z,15
2022-09-06T16:14:44.887Z,15
2022-09-06T16:15:25.943Z,15
2022-09-06T16:16:07.593Z,15
2022-09-06T16:16:49.422Z,20
2022-09-06T16:17:29.512Z,20
2022-09-06T16:19:34.794Z,20
2022-09-06T16:20:15.853Z,20
2022-09-06T16:20:56.982Z,15
2022-09-06T16:21:38.074Z,15
2022-09-06T16:22:19.250Z,15
2022-09-06T16:25:44.714Z,15
2022-09-06T16:26:25.789Z,15
2022-09-06T16:27:06.967Z,15
2022-09-06T16:27:48.003Z,15
2022-09-06T16:28:29.229Z,15
2022-09-06T16:33:53.508Z,10
2022-09-06T16:34:42.125Z,10
2022-09-06T16:35:30.094Z,10
2022-09-06T16:38:01.326Z,10
2022-09-06T16:38:41.730Z,10
2022-09-06T16:39:22.351Z,10
2022-09-06T16:42:45.340Z,10
2022-09-06T16:43:25.791Z,10
2022-09-06T16:44:06.449Z,10
2022-09-06T16:44:46.957Z,10
2022-09-06T16:45:28.081Z,10
2022-09-06T16:46:08.547Z,10
2022-09-06T16:46:49.096Z,10
2022-09-06T16:47:29.637Z,10
2022-09-06T16:48:10.190Z,10
2022-09-06T16:54:54.512Z,5
2022-09-06T16:55:41.862Z,5
2022-09-06T16:56:24.955Z,5
2022-09-06T16:57:05.423Z,5
2022-09-06T16:57:46.122Z,5
2022-09-06T16:58:26.612Z,5
2022-09-06T17:05:52.460Z,5
2022-09-06T17:06:33.013Z,5
2022-09-06T17:07:13.428Z,5
2022-09-06T17:07:53.952Z,5
2022-09-06T17:08:34.425Z,5
2022-09-06T17:09:14.921Z,5
2022-09-06T17:09:55.482Z,5
2022-09-06T17:10:35.984Z,5
2022-09-06T17:11:16.844Z,5
2022-09-06T17:18:02.807Z,5
2022-09-06T17:18:43.180Z,5
2022-09-06T17:19:23.736Z,5
2022-09-06T17:20:04.249Z,5
2022-09-06T17:20:44.740Z,5
2022-09-06T17:21:25.208Z,5
2022-09-06T17:22:06.602Z,5
2022-09-06T17:27:32.211Z,5
2022-09-06T17:28:12.725Z,5
2022-09-06T17:28:53.295Z,5
2022-09-06T17:29:34.534Z,5
2022-09-06T17:30:14.787Z,5
2022-09-06T17:30:55.462Z,5
2022-09-06T17:31:35.938Z,5
2022-09-06T17:32:57.015Z,5
2022-09-06T17:39:42.197Z,0
2022-09-06T17:40:22.602Z,0
2022-09-06T17:41:03.087Z,0
2022-09-06T17:41:43.813Z,0
2022-09-06T17:42:24.273Z,0
2022-09-06T17:43:04.905Z,0
2022-09-06T17:43:45.929Z,0
2022-09-06T17:44:26.381Z,0
2022-09-06T17:45:07.109Z,0
2022-09-06T17:51:52.199Z,0
2022-09-06T17:52:32.707Z,0
2022-09-06T17:53:13.232Z,0
2022-09-06T17:53:53.754Z,0
2022-09-06T17:54:34.330Z,0
2022-09-06T18:34:27.725Z,0
2022-09-06T18:35:08.323Z,0
2022-09-06T18:35:49.378Z,0
2022-09-06T18:40:32.497Z,0
2022-09-06T18:41:12.966Z,0
2022-09-06T18:41:53.504Z,0
2022-09-06T18:42:33.999Z,0
2022-09-06T18:43:14.522Z,0
2022-09-06T18:43:55.061Z,0
2022-09-06T18:44:35.504Z,0
2022-09-06T18:45:16.066Z,0
2022-09-06T18:45:56.630Z,0
2022-09-06T18:46:37.616Z,0
2022-09-06T18:53:22.300Z,0
2022-09-06T18:57:02.496Z,0
2022-09-06T18:57:43.065Z,0
2022-09-06T18:58:23.537Z,0
2022-09-06T19:02:26.486Z,0
2022-09-06T19:03:06.943Z,0
2022-09-06T19:03:48.125Z,0
2022-09-06T19:04:28.671Z,0
2022-09-06T19:05:09.205Z,0
2022-09-06T19:05:49.697Z,0
2022-09-06T19:06:30.243Z,0
2022-09-06T19:07:10.906Z,0
2022-09-06T19:13:16.463Z,0
2022-09-06T19:13:56.944Z,0
2022-09-06T19:14:37.483Z,0
2022-09-06T19:15:58.482Z,0
2022-09-06T19:16:39.010Z,0
2022-09-06T19:17:19.387Z,0
2022-09-06T19:18:41.396Z,0
2022-09-06T19:20:47.869Z,0
2022-09-06T19:21:27.994Z,0
2022-09-06T19:22:08.616Z,0
2022-09-06T19:22:49.254Z,0
2022-09-06T19:23:30.034Z,0
2022-09-06T19:24:10.747Z,0
2022-09-06T19:24:51.157Z,0
2022-09-06T19:31:36.431Z,0
2022-09-06T19:32:17.391Z,0
2022-09-06T19:32:57.786Z,0
2022-09-06T19:33:38.291Z,0
2022-09-06T19:34:19.364Z,0
2022-09-06T19:34:59.848Z,0
2022-09-06T19:39:06.974Z,0
2022-09-06T19:39:47.281Z,0
2022-09-06T19:40:27.706Z,0
2022-09-06T19:41:08.226Z,0
2022-09-06T19:41:48.756Z,0
2022-09-06T19:42:29.267Z,0
2022-09-06T19:43:09.707Z,0
2022-09-06T19:43:50.244Z,0
2022-09-06T19:46:29.352Z,0
2022-09-06T19:47:09.281Z,0
2022-09-06T19:47:49.691Z,0
2022-09-06T19:54:50.920Z,0
2022-09-06T19:55:31.493Z,0
2022-09-06T19:56:11.941Z,0
2022-09-06T20:02:34.716Z,0
2022-09-06T20:03:15.225Z,0
2022-09-06T20:03:55.797Z,0
2022-09-06T20:07:19.621Z,0
2022-09-06T20:07:59.788Z,0
2022-09-06T20:08:40.363Z,0
2022-09-06T20:09:21.522Z,0
2022-09-06T20:10:02.804Z,0
2022-09-06T20:10:43.264Z,0
2022-09-06T20:11:23.797Z,0
2022-09-06T20:16:22.631Z,0
2022-09-06T20:17:29.471Z,0
2022-09-06T20:17:44.510Z,0
2022-09-06T20:19:05.645Z,0
2022-09-06T20:19:46.097Z,0
2022-09-06T20:20:26.737Z,0
2022-09-06T20:21:07.214Z,0
2022-09-06T20:21:47.635Z,0
2022-09-06T20:22:28.113Z,0
2022-09-06T20:23:08.603Z,0
2022-09-06T20:23:49.202Z,0
2022-09-06T20:24:29.631Z,0
2022-09-06T20:25:10.290Z,0
2022-09-06T20:31:55.933Z,0
2022-09-06T20:33:16.928Z,0
2022-09-06T20:33:57.691Z,0
2022-09-06T20:34:38.305Z,0
2022-09-06T20:35:18.854Z,0
2022-09-06T20:35:59.821Z,0
2022-09-06T20:36:40.300Z,0
2022-09-06T20:43:25.843Z,0
2022-09-06T20:44:06.453Z,0
2022-09-06T20:44:46.903Z,0
2022-09-06T20:45:27.628Z,0
2022-09-06T20:46:08.069Z,0
2022-09-06T20:46:48.569Z,0
2022-09-06T20:47:29.059Z,0
2022-09-06T20:48:09.520Z,0
2022-09-06T20:48:50.120Z,0
2022-09-06T20:49:30.552Z,0
2022-09-06T20:56:15.828Z,0
2022-09-06T20:56:56.324Z,0
2022-09-06T20:57:36.788Z,0
2022-09-06T20:58:17.467Z,0
2022-09-06T20:58:57.973Z,0
2022-09-06T20:59:38.477Z,0
2022-09-06T21:00:19.013Z,0
2022-09-06T21:00:59.496Z,0
2022-09-06T21:01:39.926Z,0
2022-09-06T21:02:20.412Z,0
2022-09-06T21:09:45.935Z,0
2022-09-06T21:10:26.505Z,0
2022-09-06T21:11:06.953Z,0
2022-09-06T21:11:48.152Z,0
2022-09-06T21:12:28.637Z,0
2022-09-06T21:13:09.165Z,0
2022-09-06T21:13:49.629Z,0
2022-09-06T21:14:30.204Z,0
2022-09-06T21:15:10.659Z,0
2022-09-06T21:20:35.836Z,0
2022-09-06T21:21:16.526Z,0
2022-09-06T21:21:57.079Z,0
2022-09-06T21:22:37.463Z,0
2022-09-06T21:23:17.936Z,0
2022-09-06T21:23:58.471Z,0
2022-09-06T21:24:38.917Z,0
2022-09-06T21:25:19.405Z,0
2022-09-06T21:25:59.906Z,0
2022-09-06T21:26:40.376Z,0
2022-09-06T21:32:45.750Z,0
2022-09-06T21:33:26.255Z,0
2022-09-06T21:34:06.683Z,0
2022-09-06T21:34:47.225Z,0
2022-09-06T21:35:27.802Z,0
2022-09-06T21:36:48.753Z,0
2022-09-06T21:37:29.284Z,0
2022-09-06T21:38:09.775Z,0
2022-09-06T21:38:50.367Z,0
2022-09-06T21:43:45.801Z,0
2022-09-06T21:44:26.299Z,0
2022-09-06T21:45:06.811Z,0
2022-09-06T21:50:30.724Z,0
2022-09-06T21:51:11.208Z,0
2022-09-06T21:51:51.738Z,0
2022-09-06T21:52:32.243Z,0
2022-09-06T21:53:12.705Z,0
2022-09-06T21:53:53.361Z,0
2022-09-06T21:54:33.829Z,0
2022-09-06T21:55:15.607Z,0
2022-09-06T21:55:54.927Z,0
2022-09-06T21:56:35.382Z,0
2022-09-06T22:04:00.814Z,0
2022-09-06T22:04:41.263Z,0
2022-09-06T22:05:22.445Z,0
2022-09-06T22:06:03.003Z,0
2022-09-06T22:06:43.567Z,0
2022-09-06T22:07:24.053Z,0
2022-09-06T22:08:04.525Z,0
2022-09-06T22:08:44.991Z,0
2022-09-06T22:09:25.467Z,0
2022-09-06T22:15:30.490Z,0
2022-09-06T22:16:11.004Z,0
2022-09-06T22:16:51.518Z,0
2022-09-06T22:17:31.932Z,0
2022-09-06T22:18:12.456Z,0
2022-09-06T22:18:52.946Z,0
2022-09-06T22:19:33.944Z,0
2022-09-06T22:20:14.475Z,0
2022-09-06T22:20:55.013Z,0
2022-09-06T22:21:35.521Z,0
2022-09-06T22:28:20.479Z,0
2022-09-06T22:29:00.988Z,0
2022-09-06T22:29:41.603Z,0
2022-09-06T22:30:25.561Z,0
2022-09-06T22:31:02.664Z,0
2022-09-06T22:31:43.346Z,0
2022-09-06T22:32:23.678Z,0
2022-09-06T22:33:04.148Z,0
2022-09-06T22:33:44.647Z,0
2022-09-06T22:34:25.130Z,0
2022-09-06T22:41:50.517Z,0
2022-09-06T22:42:31.276Z,0